sensor_id;sensor_type;location;lat;lon;timestamp;pressure;altitude;pressure_sealevel;temperature;humidity
71145;BME280;58812;47.698;17.726;2023-05-11T00:01:31;100227.37;;;11.02;78.13
71145;BME280;58812;47.698;17.726;2023-05-11T00:03:56;100230.22;;;11.00;78.85
71145;BME280;58812;47.698;17.726;2023-05-11T00:06:22;100238.41;;;10.99;77.97
71145;BME280;58812;47.698;17.726;2023-05-11T00:08:47;100227.69;;;10.99;78.62
71145;BME280;58812;47.698;17.726;2023-05-11T00:11:13;100237.41;;;11.00;78.15
71145;BME280;58812;47.698;17.726;2023-05-11T00:13:38;100235.41;;;11.02;78.40
71145;BME280;58812;47.698;17.726;2023-05-11T00:16:04;100230.06;;;11.02;78.23
71145;BME280;58812;47.698;17.726;2023-05-11T00:18:29;100234.41;;;11.03;78.15
71145;BME280;58812;47.698;17.726;2023-05-11T00:20:55;100228.09;;;11.04;78.31
71145;BME280;58812;47.698;17.726;2023-05-11T00:23:20;100225.53;;;11.02;78.39
71145;BME280;58812;47.698;17.726;2023-05-11T00:25:46;100220.06;;;11.04;78.54
71145;BME280;58812;47.698;17.726;2023-05-11T00:28:11;100221.56;;;11.06;78.74
71145;BME280;58812;47.698;17.726;2023-05-11T00:30:39;100221.00;;;11.03;78.98
71145;BME280;58812;47.698;17.726;2023-05-11T00:33:04;100225.69;;;11.01;78.41
71145;BME280;58812;47.698;17.726;2023-05-11T00:35:29;100219.66;;;10.99;78.75
71145;BME280;58812;47.698;17.726;2023-05-11T00:37:57;100221.50;;;10.98;79.05
71145;BME280;58812;47.698;17.726;2023-05-11T00:40:22;100215.97;;;11.00;79.30
71145;BME280;58812;47.698;17.726;2023-05-11T00:42:47;100211.31;;;11.02;79.35
71145;BME280;58812;47.698;17.726;2023-05-11T00:45:13;100213.97;;;11.02;79.00
71145;BME280;58812;47.698;17.726;2023-05-11T00:47:39;100206.94;;;11.01;79.30
71145;BME280;58812;47.698;17.726;2023-05-11T00:50:05;100219.34;;;11.02;79.11
71145;BME280;58812;47.698;17.726;2023-05-11T00:52:31;100201.91;;;10.98;79.23
71145;BME280;58812;47.698;17.726;2023-05-11T00:54:57;100215.97;;;11.00;79.02
71145;BME280;58812;47.698;17.726;2023-05-11T00:57:22;100215.97;;;11.00;79.39
71145;BME280;58812;47.698;17.726;2023-05-11T00:59:48;100219.66;;;10.99;79.50
71145;BME280;58812;47.698;17.726;2023-05-11T01:02:13;100225.84;;;10.99;79.25
71145;BME280;58812;47.698;17.726;2023-05-11T01:04:39;100222.78;;;10.94;79.53
71145;BME280;58812;47.698;17.726;2023-05-11T01:07:55;100225.62;;;10.92;79.29
71145;BME280;58812;47.698;17.726;2023-05-11T01:13:20;100209.00;;;10.89;79.13
71145;BME280;58812;47.698;17.726;2023-05-11T01:15:54;100213.50;;;10.88;78.99
71145;BME280;58812;47.698;17.726;2023-05-11T01:18:36;100217.84;;;10.89;78.74
71145;BME280;58812;47.698;17.726;2023-05-11T01:21:04;100216.19;;;10.88;78.63
71145;BME280;58812;47.698;17.726;2023-05-11T01:31:41;100208.81;;;10.90;78.23
71145;BME280;58812;47.698;17.726;2023-05-11T01:34:18;100218.56;;;10.91;77.85
71145;BME280;58812;47.698;17.726;2023-05-11T01:39:29;100206.53;;;10.95;77.57
71145;BME280;58812;47.698;17.726;2023-05-11T01:41:57;100212.34;;;10.91;78.15
71145;BME280;58812;47.698;17.726;2023-05-11T01:44:26;100215.19;;;10.89;77.76
71145;BME280;58812;47.698;17.726;2023-05-11T01:46:55;100205.63;;;10.87;77.91
71145;BME280;58812;47.698;17.726;2023-05-11T01:49:22;100210.13;;;10.86;78.11
71145;BME280;58812;47.698;17.726;2023-05-11T01:51:50;100213.81;;;10.85;78.20
71145;BME280;58812;47.698;17.726;2023-05-11T01:54:16;100214.41;;;10.79;78.24
71145;BME280;58812;47.698;17.726;2023-05-11T01:56:43;100201.75;;;10.72;78.52
71145;BME280;58812;47.698;17.726;2023-05-11T01:59:10;100204.88;;;10.67;78.63
71145;BME280;58812;47.698;17.726;2023-05-11T02:01:39;100206.19;;;10.63;78.87
71145;BME280;58812;47.698;17.726;2023-05-11T02:04:06;100199.72;;;10.56;79.21
71145;BME280;58812;47.698;17.726;2023-05-11T02:06:34;100206.37;;;10.52;79.58
71145;BME280;58812;47.698;17.726;2023-05-11T02:09:02;100203.13;;;10.48;79.55
71145;BME280;58812;47.698;17.726;2023-05-11T02:11:28;100197.38;;;10.43;79.84
71145;BME280;58812;47.698;17.726;2023-05-11T02:13:56;100196.84;;;10.39;79.87
71145;BME280;58812;47.698;17.726;2023-05-11T02:16:23;100208.81;;;10.35;80.04
71145;BME280;58812;47.698;17.726;2023-05-11T02:18:50;100209.25;;;10.31;80.22
71145;BME280;58812;47.698;17.726;2023-05-11T02:21:16;100207.28;;;10.33;80.76
71145;BME280;58812;47.698;17.726;2023-05-11T02:23:44;100212.06;;;10.29;80.38
71145;BME280;58812;47.698;17.726;2023-05-11T02:26:12;100204.38;;;10.26;80.31
71145;BME280;58812;47.698;17.726;2023-05-11T02:28:39;100210.81;;;10.24;80.51
71145;BME280;58812;47.698;17.726;2023-05-11T02:31:08;100193.81;;;10.15;80.99
71145;BME280;58812;47.698;17.726;2023-05-11T02:33:42;100208.16;;;10.14;80.84
71145;BME280;58812;47.698;17.726;2023-05-11T02:36:09;100202.41;;;10.09;81.22
71145;BME280;58812;47.698;17.726;2023-05-11T02:38:38;100200.31;;;10.03;81.89
71145;BME280;58812;47.698;17.726;2023-05-11T02:41:09;100199.91;;;9.98;81.88
71145;BME280;58812;47.698;17.726;2023-05-11T02:43:38;100202.84;;;9.95;81.91
71145;BME280;58812;47.698;17.726;2023-05-11T02:46:14;100201.06;;;9.85;82.22
71145;BME280;58812;47.698;17.726;2023-05-11T02:48:48;100201.62;;;9.79;82.93
71145;BME280;58812;47.698;17.726;2023-05-11T02:51:16;100200.38;;;9.74;82.92
71145;BME280;58812;47.698;17.726;2023-05-11T02:53:43;100203.47;;;9.69;83.30
71145;BME280;58812;47.698;17.726;2023-05-11T02:56:10;100206.41;;;9.66;83.37
71145;BME280;58812;47.698;17.726;2023-05-11T02:58:36;100209.53;;;9.61;84.01
71145;BME280;58812;47.698;17.726;2023-05-11T03:01:05;100200.94;;;9.58;84.05
71145;BME280;58812;47.698;17.726;2023-05-11T03:03:31;100199.94;;;9.59;83.58
71145;BME280;58812;47.698;17.726;2023-05-11T03:05:56;100198.41;;;9.56;84.23
71145;BME280;58812;47.698;17.726;2023-05-11T03:08:22;100204.88;;;9.54;84.99
71145;BME280;58812;47.698;17.726;2023-05-11T03:10:47;100201.78;;;9.49;84.91
71145;BME280;58812;47.698;17.726;2023-05-11T03:13:14;100193.91;;;9.47;85.20
71145;BME280;58812;47.698;17.726;2023-05-11T03:15:42;100195.03;;;9.45;85.25
71145;BME280;58812;47.698;17.726;2023-05-11T03:18:08;100192.63;;;9.42;84.95
71145;BME280;58812;47.698;17.726;2023-05-11T03:20:36;100194.75;;;9.38;85.59
71145;BME280;58812;47.698;17.726;2023-05-11T03:23:04;100192.50;;;9.33;85.92
71145;BME280;58812;47.698;17.726;2023-05-11T03:25:31;100197.84;;;9.33;85.93
71145;BME280;58812;47.698;17.726;2023-05-11T03:27:57;100190.81;;;9.32;85.60
71145;BME280;58812;47.698;17.726;2023-05-11T03:30:25;100197.28;;;9.30;85.92
71145;BME280;58812;47.698;17.726;2023-05-11T03:32:52;100190.81;;;9.32;85.79
71145;BME280;58812;47.698;17.726;2023-05-11T03:35:18;100198.84;;;9.32;85.77
71145;BME280;58812;47.698;17.726;2023-05-11T03:37:44;100200.38;;;9.35;85.61
71145;BME280;58812;47.698;17.726;2023-05-11T03:40:12;100194.47;;;9.31;85.66
71145;BME280;58812;47.698;17.726;2023-05-11T03:42:39;100193.66;;;9.31;86.28
71145;BME280;58812;47.698;17.726;2023-05-11T03:45:07;100191.66;;;9.33;86.16
71145;BME280;58812;47.698;17.726;2023-05-11T03:47:34;100192.78;;;9.30;86.41
71145;BME280;58812;47.698;17.726;2023-05-11T03:50:02;100191.50;;;9.34;86.19
71145;BME280;58812;47.698;17.726;2023-05-11T03:52:28;100190.25;;;9.39;85.66
71145;BME280;58812;47.698;17.726;2023-05-11T03:54:55;100202.87;;;9.36;85.97
71145;BME280;58812;47.698;17.726;2023-05-11T03:57:24;100197.97;;;9.42;85.52
71145;BME280;58812;47.698;17.726;2023-05-11T03:59:50;100200.53;;;9.43;85.23
71145;BME280;58812;47.698;17.726;2023-05-11T04:02:15;100207.41;;;9.46;85.68
71145;BME280;58812;47.698;17.726;2023-05-11T04:04:41;100205.44;;;9.48;85.45
71145;BME280;58812;47.698;17.726;2023-05-11T04:07:06;100210.22;;;9.54;85.52
71145;BME280;58812;47.698;17.726;2023-05-11T04:09:32;100212.31;;;9.60;84.82
71145;BME280;58812;47.698;17.726;2023-05-11T04:11:57;100214.16;;;9.69;84.45
71145;BME280;58812;47.698;17.726;2023-05-11T04:14:22;100208.22;;;9.75;84.35
71145;BME280;58812;47.698;17.726;2023-05-11T04:16:48;100209.91;;;9.76;84.57
71145;BME280;58812;47.698;17.726;2023-05-11T04:19:13;100211.31;;;9.80;84.23
71145;BME280;58812;47.698;17.726;2023-05-11T04:21:40;100216.09;;;9.86;84.20
71145;BME280;58812;47.698;17.726;2023-05-11T04:24:06;100217.78;;;9.87;83.52
71145;BME280;58812;47.698;17.726;2023-05-11T04:26:32;100220.59;;;9.86;84.06
71145;BME280;58812;47.698;17.726;2023-05-11T04:28:57;100215.09;;;9.87;84.19
71145;BME280;58812;47.698;17.726;2023-05-11T04:31:23;100215.62;;;10.01;83.33
71145;BME280;58812;47.698;17.726;2023-05-11T04:33:48;100222.91;;;10.18;82.88
71145;BME280;58812;47.698;17.726;2023-05-11T04:36:13;100224.91;;;10.63;80.90
71145;BME280;58812;47.698;17.726;2023-05-11T04:38:39;100226.59;;;10.91;79.71
71145;BME280;58812;47.698;17.726;2023-05-11T04:41:06;100231.28;;;11.07;79.02
71145;BME280;58812;47.698;17.726;2023-05-11T04:43:32;100223.87;;;11.37;78.12
71145;BME280;58812;47.698;17.726;2023-05-11T04:45:58;100226.34;;;11.66;77.28
71145;BME280;58812;47.698;17.726;2023-05-11T04:48:24;100219.91;;;11.94;75.86
71145;BME280;58812;47.698;17.726;2023-05-11T04:50:50;100225.31;;;12.02;74.92
71145;BME280;58812;47.698;17.726;2023-05-11T04:53:16;100226.78;;;11.97;75.02
71145;BME280;58812;47.698;17.726;2023-05-11T04:55:41;100228.88;;;12.29;74.31
71145;BME280;58812;47.698;17.726;2023-05-11T04:58:07;100221.09;;;12.26;73.54
71145;BME280;58812;47.698;17.726;2023-05-11T05:00:32;100223.66;;;12.62;72.65
71145;BME280;58812;47.698;17.726;2023-05-11T05:02:57;100234.31;;;12.79;71.54
71145;BME280;58812;47.698;17.726;2023-05-11T05:05:23;100235.94;;;13.06;70.55
71145;BME280;58812;47.698;17.726;2023-05-11T05:07:48;100223.25;;;13.25;69.53
71145;BME280;58812;47.698;17.726;2023-05-11T05:10:14;100229.38;;;13.09;69.25
71145;BME280;58812;47.698;17.726;2023-05-11T05:12:39;100226.94;;;13.24;68.59
71145;BME280;58812;47.698;17.726;2023-05-11T05:15:06;100233.37;;;13.47;68.52
71145;BME280;58812;47.698;17.726;2023-05-11T05:17:31;100230.69;;;13.55;67.69
71145;BME280;58812;47.698;17.726;2023-05-11T05:19:57;100239.44;;;13.90;66.80
71145;BME280;58812;47.698;17.726;2023-05-11T05:22:23;100237.56;;;13.99;66.05
71145;BME280;58812;47.698;17.726;2023-05-11T05:24:49;100220.94;;;13.95;64.86
71145;BME280;58812;47.698;17.726;2023-05-11T05:27:14;100239.56;;;14.29;64.71
71145;BME280;58812;47.698;17.726;2023-05-11T05:29:40;100246.09;;;14.43;64.33
71145;BME280;58812;47.698;17.726;2023-05-11T05:32:05;100239.19;;;14.40;64.38
71145;BME280;58812;47.698;17.726;2023-05-11T05:34:30;100236.69;;;14.55;63.50
71145;BME280;58812;47.698;17.726;2023-05-11T05:36:56;100247.69;;;14.85;62.83
71145;BME280;58812;47.698;17.726;2023-05-11T05:39:21;100255.72;;;15.32;61.61
71145;BME280;58812;47.698;17.726;2023-05-11T05:41:47;100243.00;;;15.41;60.39
71145;BME280;58812;47.698;17.726;2023-05-11T05:44:12;100244.03;;;15.40;59.89
71145;BME280;58812;47.698;17.726;2023-05-11T05:46:38;100251.28;;;15.39;60.20
71145;BME280;58812;47.698;17.726;2023-05-11T05:49:03;100247.41;;;15.42;59.93
71145;BME280;58812;47.698;17.726;2023-05-11T05:51:29;100244.56;;;15.66;59.39
71145;BME280;58812;47.698;17.726;2023-05-11T05:53:55;100251.84;;;15.58;58.50
71145;BME280;58812;47.698;17.726;2023-05-11T05:56:21;100253.78;;;15.41;58.23
71145;BME280;58812;47.698;17.726;2023-05-11T05:58:46;100255.06;;;15.53;58.38
71145;BME280;58812;47.698;17.726;2023-05-11T06:01:12;100254.88;;;15.86;58.00
71145;BME280;58812;47.698;17.726;2023-05-11T06:03:38;100259.16;;;15.95;57.75
71145;BME280;58812;47.698;17.726;2023-05-11T06:06:04;100249.63;;;16.07;56.92
71145;BME280;58812;47.698;17.726;2023-05-11T06:08:31;100259.41;;;16.61;55.98
71145;BME280;58812;47.698;17.726;2023-05-11T06:10:56;100261.37;;;16.96;54.76
71145;BME280;58812;47.698;17.726;2023-05-11T06:13:22;100263.03;;;16.82;52.88
71145;BME280;58812;47.698;17.726;2023-05-11T06:15:47;100263.41;;;17.09;51.56
71145;BME280;58812;47.698;17.726;2023-05-11T06:18:12;100259.56;;;17.18;50.58
71145;BME280;58812;47.698;17.726;2023-05-11T06:20:38;100261.81;;;17.00;51.41
71145;BME280;58812;47.698;17.726;2023-05-11T06:23:03;100259.50;;;16.97;51.57
71145;BME280;58812;47.698;17.726;2023-05-11T06:25:29;100251.34;;;17.12;49.28
71145;BME280;58812;47.698;17.726;2023-05-11T06:27:54;100261.06;;;17.06;49.17
71145;BME280;58812;47.698;17.726;2023-05-11T06:30:20;100258.16;;;17.22;49.60
71145;BME280;58812;47.698;17.726;2023-05-11T06:32:45;100261.28;;;17.41;49.73
71145;BME280;58812;47.698;17.726;2023-05-11T06:35:10;100259.50;;;17.69;49.36
71145;BME280;58812;47.698;17.726;2023-05-11T06:37:36;100255.38;;;17.52;48.60
71145;BME280;58812;47.698;17.726;2023-05-11T06:40:01;100267.37;;;17.64;48.00
71145;BME280;58812;47.698;17.726;2023-05-11T06:42:27;100272.91;;;17.56;47.06
71145;BME280;58812;47.698;17.726;2023-05-11T06:44:52;100264.59;;;17.21;49.05
71145;BME280;58812;47.698;17.726;2023-05-11T06:47:18;100264.56;;;17.72;47.66
71145;BME280;58812;47.698;17.726;2023-05-11T06:49:43;100260.47;;;17.61;47.21
71145;BME280;58812;47.698;17.726;2023-05-11T06:52:09;100263.78;;;17.06;48.97
71145;BME280;58812;47.698;17.726;2023-05-11T06:54:34;100262.50;;;17.74;48.22
71145;BME280;58812;47.698;17.726;2023-05-11T06:57:00;100269.31;;;17.70;48.30
71145;BME280;58812;47.698;17.726;2023-05-11T06:59:29;100267.00;;;18.10;46.15
71145;BME280;58812;47.698;17.726;2023-05-11T07:01:54;100264.81;;;17.77;47.36
71145;BME280;58812;47.698;17.726;2023-05-11T07:04:20;100265.62;;;17.56;47.90
71145;BME280;58812;47.698;17.726;2023-05-11T07:06:45;100263.56;;;18.23;45.62
71145;BME280;58812;47.698;17.726;2023-05-11T07:09:11;100259.16;;;18.78;44.88
71145;BME280;58812;47.698;17.726;2023-05-11T07:11:36;100259.41;;;18.83;45.23
71145;BME280;58812;47.698;17.726;2023-05-11T07:14:02;100262.53;;;18.52;44.94
71145;BME280;58812;47.698;17.726;2023-05-11T07:16:27;100259.81;;;18.52;44.35
71145;BME280;58812;47.698;17.726;2023-05-11T07:18:53;100260.00;;;18.22;44.45
71145;BME280;58812;47.698;17.726;2023-05-11T07:21:18;100267.53;;;18.55;43.89
71145;BME280;58812;47.698;17.726;2023-05-11T07:23:46;100259.06;;;18.99;43.32
71145;BME280;58812;47.698;17.726;2023-05-11T07:26:12;100262.03;;;18.70;43.93
71145;BME280;58812;47.698;17.726;2023-05-11T07:28:38;100256.59;;;19.59;43.27
71145;BME280;58812;47.698;17.726;2023-05-11T07:31:04;100261.34;;;18.95;44.12
71145;BME280;58812;47.698;17.726;2023-05-11T07:33:29;100265.13;;;19.01;44.34
71145;BME280;58812;47.698;17.726;2023-05-11T07:35:55;100265.38;;;19.61;42.79
71145;BME280;58812;47.698;17.726;2023-05-11T07:38:20;100268.47;;;19.58;42.88
71145;BME280;58812;47.698;17.726;2023-05-11T07:40:46;100268.31;;;19.79;42.27
71145;BME280;58812;47.698;17.726;2023-05-11T07:43:23;100275.75;;;19.51;42.21
71145;BME280;58812;47.698;17.726;2023-05-11T07:45:49;100268.38;;;20.19;41.51
71145;BME280;58812;47.698;17.726;2023-05-11T07:48:14;100267.53;;;20.25;40.55
71145;BME280;58812;47.698;17.726;2023-05-11T07:50:39;100268.56;;;20.64;40.11
71145;BME280;58812;47.698;17.726;2023-05-11T07:53:06;100266.66;;;20.77;40.34
71145;BME280;58812;47.698;17.726;2023-05-11T07:55:32;100265.66;;;20.59;40.27
71145;BME280;58812;47.698;17.726;2023-05-11T07:57:57;100266.06;;;20.42;39.97
71145;BME280;58812;47.698;17.726;2023-05-11T08:00:23;100265.00;;;20.43;39.72
71145;BME280;58812;47.698;17.726;2023-05-11T08:02:48;100272.66;;;21.06;40.19
71145;BME280;58812;47.698;17.726;2023-05-11T08:05:14;100274.13;;;20.95;39.50
71145;BME280;58812;47.698;17.726;2023-05-11T08:07:39;100265.69;;;21.10;38.83
71145;BME280;58812;47.698;17.726;2023-05-11T08:10:05;100259.16;;;21.31;38.57
71145;BME280;58812;47.698;17.726;2023-05-11T08:12:31;100268.72;;;21.40;39.24
71145;BME280;58812;47.698;17.726;2023-05-11T08:14:57;100269.53;;;22.42;37.85
71145;BME280;58812;47.698;17.726;2023-05-11T08:17:22;100270.03;;;21.69;37.49
71145;BME280;58812;47.698;17.726;2023-05-11T08:19:48;100269.97;;;21.44;37.80
71145;BME280;58812;47.698;17.726;2023-05-11T08:22:13;100271.59;;;21.07;38.45
71145;BME280;58812;47.698;17.726;2023-05-11T08:24:39;100252.78;;;20.92;38.05
71145;BME280;58812;47.698;17.726;2023-05-11T08:27:04;100262.84;;;20.85;38.72
71145;BME280;58812;47.698;17.726;2023-05-11T08:29:30;100253.87;;;20.85;38.33
71145;BME280;58812;47.698;17.726;2023-05-11T08:31:55;100262.53;;;20.48;38.94
71145;BME280;58812;47.698;17.726;2023-05-11T08:34:21;100252.38;;;20.95;39.01
71145;BME280;58812;47.698;17.726;2023-05-11T08:36:47;100255.72;;;20.91;38.62
71145;BME280;58812;47.698;17.726;2023-05-11T08:39:12;100245.16;;;21.14;38.69
71145;BME280;58812;47.698;17.726;2023-05-11T08:41:38;100247.31;;;21.05;38.31
71145;BME280;58812;47.698;17.726;2023-05-11T08:44:03;100243.94;;;21.03;39.22
71145;BME280;58812;47.698;17.726;2023-05-11T08:46:29;100241.78;;;21.95;37.77
71145;BME280;58812;47.698;17.726;2023-05-11T08:48:58;100237.06;;;21.52;38.37
71145;BME280;58812;47.698;17.726;2023-05-11T08:51:24;100239.38;;;22.05;36.73
71145;BME280;58812;47.698;17.726;2023-05-11T08:53:50;100236.91;;;21.72;36.73
71145;BME280;58812;47.698;17.726;2023-05-11T08:56:18;100231.06;;;22.00;36.65
71145;BME280;58812;47.698;17.726;2023-05-11T08:58:46;100235.44;;;22.01;37.21
71145;BME280;58812;47.698;17.726;2023-05-11T09:01:12;100226.06;;;21.66;37.50
71145;BME280;58812;47.698;17.726;2023-05-11T09:03:39;100226.69;;;21.68;38.06
71145;BME280;58812;47.698;17.726;2023-05-11T09:06:06;100233.50;;;21.83;37.59
71145;BME280;58812;47.698;17.726;2023-05-11T09:08:33;100216.84;;;21.67;37.60
71145;BME280;58812;47.698;17.726;2023-05-11T09:11:03;100232.31;;;21.28;38.49
71145;BME280;58812;47.698;17.726;2023-05-11T09:13:29;100225.16;;;21.40;37.95
71145;BME280;58812;47.698;17.726;2023-05-11T09:15:56;100233.28;;;22.10;37.19
71145;BME280;58812;47.698;17.726;2023-05-11T09:18:21;100220.53;;;21.47;37.42
71145;BME280;58812;47.698;17.726;2023-05-11T09:20:49;100224.66;;;21.12;37.66
71145;BME280;58812;47.698;17.726;2023-05-11T09:23:15;100220.69;;;22.09;36.73
71145;BME280;58812;47.698;17.726;2023-05-11T09:25:41;100208.62;;;22.66;36.11
71145;BME280;58812;47.698;17.726;2023-05-11T09:28:11;100210.88;;;22.51;34.93
71145;BME280;58812;47.698;17.726;2023-05-11T09:30:37;100211.50;;;23.08;34.76
71145;BME280;58812;47.698;17.726;2023-05-11T09:33:02;100226.44;;;22.69;35.44
71145;BME280;58812;47.698;17.726;2023-05-11T09:35:30;100211.78;;;22.82;34.67
71145;BME280;58812;47.698;17.726;2023-05-11T09:38:11;100215.59;;;22.99;34.30
71145;BME280;58812;47.698;17.726;2023-05-11T09:40:54;100219.63;;;23.45;32.17
71145;BME280;58812;47.698;17.726;2023-05-11T09:43:28;100206.34;;;23.18;32.28
71145;BME280;58812;47.698;17.726;2023-05-11T09:45:56;100215.16;;;23.02;32.75
71145;BME280;58812;47.698;17.726;2023-05-11T09:48:27;100206.56;;;23.47;32.57
71145;BME280;58812;47.698;17.726;2023-05-11T09:51:04;100198.56;;;23.34;31.94
71145;BME280;58812;47.698;17.726;2023-05-11T09:53:41;100203.81;;;23.77;33.05
71145;BME280;58812;47.698;17.726;2023-05-11T09:56:09;100196.72;;;24.11;32.10
71145;BME280;58812;47.698;17.726;2023-05-11T09:58:49;100198.62;;;23.99;31.39
71145;BME280;58812;47.698;17.726;2023-05-11T10:01:16;100187.31;;;23.72;30.04
71145;BME280;58812;47.698;17.726;2023-05-11T10:03:50;100193.47;;;23.37;30.64
71145;BME280;58812;47.698;17.726;2023-05-11T10:06:16;100171.28;;;23.99;30.37
71145;BME280;58812;47.698;17.726;2023-05-11T10:08:41;100196.19;;;23.07;30.23
71145;BME280;58812;47.698;17.726;2023-05-11T10:11:07;100177.84;;;22.78;30.08
71145;BME280;58812;47.698;17.726;2023-05-11T10:13:33;100183.47;;;23.01;30.78
71145;BME280;58812;47.698;17.726;2023-05-11T10:16:02;100180.72;;;23.61;31.38
71145;BME280;58812;47.698;17.726;2023-05-11T10:18:32;100172.03;;;23.23;30.73
71145;BME280;58812;47.698;17.726;2023-05-11T10:20:58;100166.13;;;23.26;30.15
71145;BME280;58812;47.698;17.726;2023-05-11T10:23:27;100176.56;;;22.62;30.88
71145;BME280;58812;47.698;17.726;2023-05-11T10:25:53;100168.22;;;22.93;30.18
71145;BME280;58812;47.698;17.726;2023-05-11T10:28:19;100159.84;;;22.15;30.05
71145;BME280;58812;47.698;17.726;2023-05-11T10:30:48;100155.25;;;22.52;29.50
71145;BME280;58812;47.698;17.726;2023-05-11T10:33:14;100160.78;;;22.02;30.43
71145;BME280;58812;47.698;17.726;2023-05-11T10:35:41;100150.25;;;22.31;29.92
71145;BME280;58812;47.698;17.726;2023-05-11T10:38:07;100157.78;;;22.10;31.36
71145;BME280;58812;47.698;17.726;2023-05-11T10:40:39;100153.28;;;22.41;31.68
71145;BME280;58812;47.698;17.726;2023-05-11T10:59:57;100130.22;;;21.94;31.35
71145;BME280;58812;47.698;17.726;2023-05-11T11:02:34;100120.28;;;22.06;31.34
71145;BME280;58812;47.698;17.726;2023-05-11T11:05:00;100132.37;;;21.67;31.58
71145;BME280;58812;47.698;17.726;2023-05-11T11:07:31;100121.38;;;21.98;31.45
71145;BME280;58812;47.698;17.726;2023-05-11T11:10:29;100120.69;;;22.28;31.48
71145;BME280;58812;47.698;17.726;2023-05-11T11:13:03;100125.56;;;22.01;32.04
71145;BME280;58812;47.698;17.726;2023-05-11T11:18:31;100126.47;;;22.38;31.31
71145;BME280;58812;47.698;17.726;2023-05-11T11:21:00;100126.62;;;22.25;30.03
71145;BME280;58812;47.698;17.726;2023-05-11T11:26:03;100110.56;;;22.53;29.03
71145;BME280;58812;47.698;17.726;2023-05-11T11:31:32;100106.31;;;22.39;29.77
71145;BME280;58812;47.698;17.726;2023-05-11T11:39:27;100114.91;;;21.74;30.84
71145;BME280;58812;47.698;17.726;2023-05-11T11:42:04;100113.38;;;21.60;31.00
71145;BME280;58812;47.698;17.726;2023-05-11T11:44:32;100091.22;;;21.75;30.69
71145;BME280;58812;47.698;17.726;2023-05-11T11:47:17;100103.34;;;22.40;30.31
71145;BME280;58812;47.698;17.726;2023-05-11T11:49:50;100112.94;;;22.80;30.16
71145;BME280;58812;47.698;17.726;2023-05-11T11:54:54;100117.59;;;21.99;30.70
71145;BME280;58812;47.698;17.726;2023-05-11T12:00:02;100105.03;;;21.98;30.70
71145;BME280;58812;47.698;17.726;2023-05-11T12:02:32;100103.78;;;21.76;30.40
71145;BME280;58812;47.698;17.726;2023-05-11T12:05:10;100099.16;;;22.01;31.24
71145;BME280;58812;47.698;17.726;2023-05-11T12:07:46;100103.66;;;21.64;31.17
71145;BME280;58812;47.698;17.726;2023-05-11T12:10:13;100090.25;;;22.12;30.83
71145;BME280;58812;47.698;17.726;2023-05-11T12:12:43;100108.59;;;22.24;29.95
71145;BME280;58812;47.698;17.726;2023-05-11T12:15:24;100099.56;;;21.80;30.53
71145;BME280;58812;47.698;17.726;2023-05-11T12:17:49;100090.50;;;21.36;30.85
71145;BME280;58812;47.698;17.726;2023-05-11T12:20:16;100085.22;;;21.66;30.36
71145;BME280;58812;47.698;17.726;2023-05-11T12:22:43;100086.72;;;21.37;30.33
71145;BME280;58812;47.698;17.726;2023-05-11T12:25:13;100069.84;;;21.53;30.76
71145;BME280;58812;47.698;17.726;2023-05-11T12:28:09;100085.28;;;22.03;30.81
71145;BME280;58812;47.698;17.726;2023-05-11T12:30:36;100067.09;;;21.78;30.91
71145;BME280;58812;47.698;17.726;2023-05-11T12:33:02;100083.50;;;21.72;31.15
71145;BME280;58812;47.698;17.726;2023-05-11T12:35:29;100084.72;;;21.51;30.99
71145;BME280;58812;47.698;17.726;2023-05-11T12:37:58;100068.09;;;21.34;31.00
71145;BME280;58812;47.698;17.726;2023-05-11T12:40:23;100075.22;;;21.28;31.44
71145;BME280;58812;47.698;17.726;2023-05-11T12:45:17;100065.62;;;21.76;30.83
71145;BME280;58812;47.698;17.726;2023-05-11T12:47:44;100081.59;;;21.72;30.72
71145;BME280;58812;47.698;17.726;2023-05-11T12:50:10;100062.75;;;21.46;30.89
71145;BME280;58812;47.698;17.726;2023-05-11T12:52:35;100067.94;;;21.29;31.27
71145;BME280;58812;47.698;17.726;2023-05-11T12:55:01;100065.81;;;21.31;31.07
71145;BME280;58812;47.698;17.726;2023-05-11T12:57:28;100070.00;;;21.27;31.32
71145;BME280;58812;47.698;17.726;2023-05-11T13:00:07;100067.44;;;21.39;31.46
71145;BME280;58812;47.698;17.726;2023-05-11T13:02:34;100056.94;;;21.11;31.61
71145;BME280;58812;47.698;17.726;2023-05-11T13:05:09;100055.19;;;20.91;31.77
71145;BME280;58812;47.698;17.726;2023-05-11T13:07:36;100056.78;;;21.05;31.89
71145;BME280;58812;47.698;17.726;2023-05-11T13:10:01;100052.53;;;21.10;32.25
71145;BME280;58812;47.698;17.726;2023-05-11T13:12:27;100048.34;;;21.14;32.47
71145;BME280;58812;47.698;17.726;2023-05-11T13:15:08;100050.94;;;21.27;31.87
71145;BME280;58812;47.698;17.726;2023-05-11T13:17:37;100056.16;;;21.35;32.77
71145;BME280;58812;47.698;17.726;2023-05-11T13:22:43;100033.66;;;21.15;32.50
71145;BME280;58812;47.698;17.726;2023-05-11T13:25:09;100031.16;;;21.13;32.78
71145;BME280;58812;47.698;17.726;2023-05-11T13:27:36;100040.84;;;21.34;32.20
71145;BME280;58812;47.698;17.726;2023-05-11T13:30:03;100042.25;;;21.43;32.26
71145;BME280;58812;47.698;17.726;2023-05-11T13:32:29;100035.72;;;21.69;32.46
71145;BME280;58812;47.698;17.726;2023-05-11T13:34:54;100049.12;;;21.46;33.19
71145;BME280;58812;47.698;17.726;2023-05-11T13:37:20;100031.50;;;21.30;32.63